Time;durP1;ratioP1;P1;durP2;ratioP2;P2;SDS_P1;SDS_P2;PMS_P1;PMS_P2;Temp;Humidity;BMP_temperature;BMP_pressure;BME280_temperature;BME280_humidity;BME280_pressure;Samples;Min_cycle;Max_cycle;Signal;HPM_P1;HPM_P2
2023/12/08 00:01:48;;;;;;;0.10;0.10;;;-1.00;99.90;;;;;;5031745;28;20143;-67
2023/12/08 00:04:14;;;;;;;0.00;0.00;;;-1.00;99.90;;;;;;5048136;28;20032;-67
2023/12/08 00:06:39;;;;;;;0.00;0.00;;;-0.90;99.90;;;;;;5038923;28;20543;-68
2023/12/08 00:09:05;;;;;;;0.00;0.00;;;-0.90;99.90;;;;;;5046737;28;20016;-67
2023/12/08 00:11:31;;;;;;;0.30;0.30;;;-0.90;99.90;;;;;;5037007;28;20110;-67
2023/12/08 00:13:57;;;;;;;0.00;0.00;;;-0.90;99.90;;;;;;5043640;28;20048;-68
2023/12/08 00:16:22;;;;;;;0.00;0.00;;;-0.90;99.90;;;;;;5036485;28;20131;-67
2023/12/08 00:18:48;;;;;;;0.00;0.00;;;-0.90;99.90;;;;;;5043993;28;20753;-67
2023/12/08 00:21:13;;;;;;;0.00;0.00;;;-0.90;99.90;;;;;;5037844;28;20025;-66
2023/12/08 00:23:39;;;;;;;0.00;0.00;;;-0.90;99.90;;;;;;5039765;28;20017;-67
2023/12/08 00:26:05;;;;;;;0.00;0.00;;;-0.90;99.90;;;;;;5037664;28;20162;-67
2023/12/08 00:28:31;;;;;;;0.20;0.20;;;-0.80;99.90;;;;;;5045686;28;20036;-66
2023/12/08 00:30:56;;;;;;;0.00;0.00;;;-0.80;99.90;;;;;;5038140;28;20110;-67
2023/12/08 00:33:22;;;;;;;0.50;0.50;;;-0.90;99.90;;;;;;5044116;28;20150;-66
2023/12/08 00:35:50;;;;;;;0.00;0.00;;;-0.80;99.90;;;;;;5042147;28;20033;-67
2023/12/08 00:38:16;;;;;;;0.08;0.08;;;-0.80;99.90;;;;;;5037189;28;20033;-69
2023/12/08 00:40:42;;;;;;;0.00;0.00;;;-0.80;99.90;;;;;;5039270;28;20074;-69
2023/12/08 00:43:07;;;;;;;0.00;0.00;;;-0.80;99.90;;;;;;5041865;28;20025;-69
2023/12/08 00:45:33;;;;;;;0.00;0.00;;;-0.80;99.90;;;;;;5030856;28;20029;-69
2023/12/08 00:47:59;;;;;;;0.00;0.00;;;-0.90;99.90;;;;;;5025320;28;20041;-69
2023/12/08 00:50:24;;;;;;;0.00;0.00;;;-0.80;99.90;;;;;;5026529;28;20087;-69
2023/12/08 00:52:50;;;;;;;0.00;0.00;;;-0.80;99.90;;;;;;5016825;28;20053;-69
2023/12/08 00:55:16;;;;;;;3.37;0.57;;;-0.80;99.90;;;;;;5023506;28;20025;-69
2023/12/08 00:57:41;;;;;;;0.10;0.10;;;-0.90;99.90;;;;;;5021199;28;20025;-67
2023/12/08 01:00:07;;;;;;;0.00;0.00;;;-0.80;99.90;;;;;;5022103;28;20028;-67
2023/12/08 01:02:33;;;;;;;0.00;0.00;;;-0.90;99.90;;;;;;5024068;28;20864;-67
2023/12/08 01:04:59;;;;;;;0.00;0.00;;;-0.90;99.90;;;;;;5024460;28;20120;-69
2023/12/08 01:07:24;;;;;;;0.00;0.00;;;-0.90;99.90;;;;;;5019699;28;20033;-69
2023/12/08 01:09:53;;;;;;;0.17;0.17;;;-0.90;99.90;;;;;;5031397;28;20048;-69
2023/12/08 01:12:18;;;;;;;0.00;0.00;;;-0.90;99.90;;;;;;5025540;28;20026;-69
2023/12/08 01:14:44;;;;;;;0.00;0.00;;;-1.00;99.90;;;;;;5015755;28;20035;-69
2023/12/08 01:17:10;;;;;;;0.00;0.00;;;-1.00;99.90;;;;;;5024138;28;20460;-69
2023/12/08 01:19:35;;;;;;;0.00;0.00;;;-1.00;99.90;;;;;;5025310;28;20021;-69
2023/12/08 01:22:01;;;;;;;0.00;0.00;;;-1.00;99.90;;;;;;5022852;28;20116;-69
2023/12/08 01:24:27;;;;;;;0.00;0.00;;;-1.00;99.90;;;;;;5023866;28;20063;-67
2023/12/08 01:26:53;;;;;;;0.00;0.00;;;-1.00;99.90;;;;;;5024182;28;20029;-67
2023/12/08 01:29:18;;;;;;;0.00;0.00;;;-1.00;99.90;;;;;;5024515;28;20130;-67
2023/12/08 01:31:44;;;;;;;0.00;0.00;;;-1.00;99.90;;;;;;5024848;28;20926;-67
2023/12/08 01:34:10;;;;;;;0.00;0.00;;;-1.00;99.90;;;;;;5028636;28;20028;-67
2023/12/08 01:36:36;;;;;;;0.00;0.00;;;-1.00;99.90;;;;;;5023475;28;20021;-67
2023/12/08 01:39:01;;;;;;;0.73;0.73;;;-1.00;99.90;;;;;;5024224;28;20495;-67
2023/12/08 01:41:27;;;;;;;0.00;0.00;;;-1.00;99.90;;;;;;5018756;28;20021;-67
2023/12/08 01:43:53;;;;;;;0.00;0.00;;;-1.00;99.90;;;;;;5023956;28;20444;-67
2023/12/08 01:46:19;;;;;;;0.10;0.10;;;-1.00;99.90;;;;;;5019642;28;20031;-67
2023/12/08 01:48:45;;;;;;;;;;;-1.00;99.90;;;;;;5021365;28;20044;-67
2023/12/08 01:51:13;;;;;;;0.00;0.00;;;-1.10;99.90;;;;;;5028023;28;19936;-67
2023/12/08 01:53:40;;;;;;;0.00;0.00;;;-1.10;99.90;;;;;;5021574;28;20484;-67
2023/12/08 01:56:10;;;;;;;0.00;0.00;;;-1.10;99.90;;;;;;5023659;28;20091;-67
2023/12/08 01:58:36;;;;;;;0.00;0.00;;;-1.10;99.90;;;;;;5024681;28;20038;-67
2023/12/08 02:01:04;;;;;;;0.00;0.00;;;-1.10;99.90;;;;;;5024361;28;20029;-67
2023/12/08 02:03:33;;;;;;;3.70;1.98;;;-1.20;99.90;;;;;;5026102;28;20021;-67
2023/12/08 02:06:00;;;;;;;0.00;0.00;;;-1.20;99.90;;;;;;5024196;28;20033;-67
2023/12/08 02:08:26;;;;;;;0.00;0.00;;;-1.30;99.90;;;;;;5024046;28;20571;-67
2023/12/08 02:10:52;;;;;;;0.00;0.00;;;-1.30;99.90;;;;;;5025369;28;20608;-67
2023/12/08 02:13:17;;;;;;;0.00;0.00;;;-1.30;99.90;;;;;;5021394;28;20120;-67
2023/12/08 02:15:47;;;;;;;0.00;0.00;;;-1.30;99.90;;;;;;5021390;28;20013;-67
2023/12/08 02:18:14;;;;;;;1.23;1.17;;;-1.30;99.90;;;;;;5023023;28;20021;-67
2023/12/08 02:20:44;;;;;;;0.17;0.17;;;-1.30;99.90;;;;;;5025464;28;20473;-67
2023/12/08 02:23:10;;;;;;;0.00;0.00;;;-1.30;99.90;;;;;;5021181;28;20032;-69
2023/12/08 02:25:35;;;;;;;0.00;0.00;;;-1.30;99.90;;;;;;5019242;28;20358;-67
2023/12/08 02:28:03;;;;;;;0.00;0.00;;;-1.30;99.90;;;;;;5022837;28;20108;-67
2023/12/08 02:30:30;;;;;;;0.00;0.00;;;-1.30;99.90;;;;;;5024822;28;20032;-67
2023/12/08 02:32:59;;;;;;;0.00;0.00;;;-1.30;99.90;;;;;;5025666;28;20049;-67
2023/12/08 02:35:26;;;;;;;0.00;0.00;;;-1.30;99.90;;;;;;5016865;28;20021;-67
2023/12/08 02:37:56;;;;;;;0.50;0.50;;;-1.30;99.90;;;;;;5022691;28;20449;-67
2023/12/08 02:40:22;;;;;;;0.00;0.00;;;-1.40;99.90;;;;;;5027705;28;20021;-67
2023/12/08 02:42:48;;;;;;;0.00;0.00;;;-1.40;99.90;;;;;;5016858;28;20148;-67
2023/12/08 02:45:13;;;;;;;0.00;0.00;;;-1.50;99.90;;;;;;5023643;28;20109;-67
2023/12/08 02:47:39;;;;;;;0.00;0.00;;;-1.50;99.90;;;;;;5024189;28;20022;-67
2023/12/08 02:50:05;;;;;;;0.07;0.07;;;-1.50;99.90;;;;;;5024737;28;20022;-67
2023/12/08 02:52:31;;;;;;;0.00;0.00;;;-1.50;99.90;;;;;;5022282;28;20017;-67
2023/12/08 02:54:58;;;;;;;0.00;0.00;;;-1.60;99.90;;;;;;5019318;28;20633;-67
2023/12/08 02:57:23;;;;;;;0.00;0.00;;;-1.60;99.90;;;;;;5025222;28;20503;-67
2023/12/08 02:59:49;;;;;;;0.00;0.00;;;-1.60;99.90;;;;;;5026148;28;20104;-67
2023/12/08 03:02:14;;;;;;;0.00;0.00;;;-1.60;99.90;;;;;;5027600;28;20028;-67
2023/12/08 03:04:40;;;;;;;0.00;0.00;;;-1.60;99.90;;;;;;5027875;28;20049;-67
2023/12/08 03:07:06;;;;;;;0.00;0.00;;;-1.60;99.90;;;;;;5027246;28;20146;-67
2023/12/08 03:09:31;;;;;;;0.00;0.00;;;-1.60;99.90;;;;;;5021525;28;20021;-67
2023/12/08 03:11:57;;;;;;;0.00;0.00;;;-1.60;99.90;;;;;;5025018;28;20116;-67
2023/12/08 03:14:22;;;;;;;0.90;0.90;;;-1.60;99.90;;;;;;5018897;28;20032;-67
2023/12/08 03:16:49;;;;;;;0.00;0.00;;;-1.60;99.90;;;;;;5022370;28;20029;-66
2023/12/08 03:19:16;;;;;;;0.00;0.00;;;-1.60;99.90;;;;;;5021611;28;20024;-67
2023/12/08 03:21:42;;;;;;;0.00;0.00;;;-1.50;99.90;;;;;;5023350;28;20022;-67
2023/12/08 03:24:07;;;;;;;0.00;0.00;;;-1.50;99.90;;;;;;5023237;28;20029;-67
2023/12/08 03:26:33;;;;;;;0.10;0.10;;;-1.60;99.90;;;;;;5018856;28;20119;-67
2023/12/08 03:28:59;;;;;;;0.00;0.00;;;-1.60;99.90;;;;;;5024174;28;20549;-66
2023/12/08 03:31:29;;;;;;;0.10;0.10;;;-1.60;99.90;;;;;;5016472;28;20025;-67
2023/12/08 03:33:55;;;;;;;0.00;0.00;;;-1.60;99.90;;;;;;5027674;28;20490;-67
2023/12/08 03:36:21;;;;;;;0.00;0.00;;;-1.60;99.90;;;;;;5022668;28;20025;-67
2023/12/08 03:38:46;;;;;;;0.07;0.07;;;-1.60;99.90;;;;;;5018672;28;20474;-67
2023/12/08 03:41:12;;;;;;;0.00;0.00;;;-1.60;99.90;;;;;;5025239;28;20021;-67
2023/12/08 03:43:38;;;;;;;0.00;0.00;;;-1.60;99.90;;;;;;5019203;28;20039;-67
2023/12/08 03:46:08;;;;;;;0.00;0.00;;;-1.60;99.90;;;;;;5019892;28;20399;-67
2023/12/08 03:48:37;;;;;;;0.00;0.00;;;-1.70;99.90;;;;;;5022522;28;20025;-67
2023/12/08 03:51:04;;;;;;;0.00;0.00;;;-1.60;99.90;;;;;;5022811;28;20483;-67
2023/12/08 03:53:30;;;;;;;0.00;0.00;;;-1.60;99.90;;;;;;5017379;28;20036;-67
2023/12/08 03:55:55;;;;;;;0.00;0.00;;;-1.60;99.90;;;;;;5017131;28;20500;-67
2023/12/08 03:58:21;;;;;;;0.00;0.00;;;-1.60;99.90;;;;;;5023568;28;20014;-67
2023/12/08 04:00:47;;;;;;;0.17;0.17;;;-1.60;99.90;;;;;;5021958;28;20026;-67
2023/12/08 04:03:13;;;;;;;0.00;0.00;;;-1.60;99.90;;;;;;5027915;28;20021;-67
2023/12/08 04:05:38;;;;;;;0.00;0.00;;;-1.70;99.90;;;;;;5022653;28;20100;-67
2023/12/08 04:08:04;;;;;;;0.10;0.10;;;-1.70;99.90;;;;;;5025307;28;20087;-67
2023/12/08 04:10:33;;;;;;;0.00;0.00;;;-1.70;99.90;;;;;;5021958;28;20484;-67
2023/12/08 04:12:58;;;;;;;0.00;0.00;;;-1.70;99.90;;;;;;5019784;28;20029;-67
2023/12/08 04:15:24;;;;;;;0.00;0.00;;;-1.80;99.90;;;;;;5022688;28;20292;-67
2023/12/08 04:17:50;;;;;;;0.00;0.00;;;-1.70;99.90;;;;;;5022272;28;20017;-67
2023/12/08 04:20:18;;;;;;;0.00;0.00;;;-1.70;99.90;;;;;;5026548;28;20021;-67
2023/12/08 04:22:43;;;;;;;0.00;0.00;;;-1.80;99.90;;;;;;5018964;28;20014;-67
2023/12/08 04:25:10;;;;;;;0.00;0.00;;;-1.80;99.90;;;;;;5021145;28;20591;-67
2023/12/08 04:27:35;;;;;;;;;;;-1.80;99.90;;;;;;5029078;28;20057;-67
2023/12/08 04:30:01;;;;;;;0.00;0.00;;;-1.80;99.90;;;;;;5025063;28;20399;-67
2023/12/08 04:32:27;;;;;;;0.00;0.00;;;-1.80;99.90;;;;;;5026265;28;20029;-67
2023/12/08 04:34:53;;;;;;;0.20;0.20;;;-1.80;99.90;;;;;;5027793;28;20038;-67
2023/12/08 04:37:18;;;;;;;0.00;0.00;;;-1.80;99.90;;;;;;5029301;28;20028;-67
2023/12/08 04:39:44;;;;;;;0.63;0.63;;;-1.80;99.90;;;;;;5025852;28;20087;-67
2023/12/08 04:42:09;;;;;;;0.00;0.00;;;-1.90;99.90;;;;;;5018960;28;20017;-67
2023/12/08 04:44:35;;;;;;;0.00;0.00;;;-1.80;99.90;;;;;;5022579;28;20040;-67
2023/12/08 04:47:01;;;;;;;1.23;0.63;;;-1.80;99.90;;;;;;5020218;28;20096;-67
2023/12/08 04:49:26;;;;;;;0.00;0.00;;;-1.80;99.90;;;;;;5027828;28;20021;-67
2023/12/08 04:51:52;;;;;;;0.00;0.00;;;-1.90;99.90;;;;;;5027769;28;20107;-67
2023/12/08 04:54:18;;;;;;;0.00;0.00;;;-1.90;99.90;;;;;;5022011;28;20033;-66
2023/12/08 04:56:44;;;;;;;0.00;0.00;;;-1.90;99.90;;;;;;5026890;28;20025;-66
2023/12/08 04:59:09;;;;;;;0.00;0.00;;;-1.90;99.90;;;;;;5027752;28;20047;-66
2023/12/08 05:01:35;;;;;;;0.10;0.10;;;-1.90;99.90;;;;;;5023085;28;20098;-66
2023/12/08 05:04:02;;;;;;;0.00;0.00;;;-2.00;99.90;;;;;;5027637;28;20029;-67
2023/12/08 05:06:29;;;;;;;0.00;0.00;;;-1.90;99.90;;;;;;5020892;28;20036;-66
2023/12/08 05:08:55;;;;;;;0.10;0.10;;;-2.00;99.90;;;;;;5028668;28;20022;-67
2023/12/08 05:11:21;;;;;;;0.00;0.00;;;-2.00;99.90;;;;;;5027304;28;20041;-66
2023/12/08 05:13:46;;;;;;;0.00;0.00;;;-2.00;99.90;;;;;;5018902;28;20449;-67
2023/12/08 05:16:12;;;;;;;0.00;0.00;;;-2.00;99.90;;;;;;5024434;28;20019;-67
2023/12/08 05:18:39;;;;;;;0.00;0.00;;;-2.10;99.90;;;;;;5023610;28;20028;-66
2023/12/08 05:21:04;;;;;;;0.00;0.00;;;-2.00;99.90;;;;;;5016813;28;20021;-66
2023/12/08 05:23:30;;;;;;;0.00;0.00;;;-2.10;99.90;;;;;;5022778;28;20045;-66
2023/12/08 05:25:56;;;;;;;0.00;0.00;;;-1.90;99.90;;;;;;5021005;28;20488;-67
2023/12/08 05:28:21;;;;;;;0.00;0.00;;;-1.90;99.90;;;;;;5029156;28;20036;-66
2023/12/08 05:30:47;;;;;;;0.33;0.33;;;-2.00;99.90;;;;;;5025849;28;20040;-66
2023/12/08 05:33:13;;;;;;;0.27;0.20;;;-1.90;99.90;;;;;;5022217;28;20048;-66
2023/12/08 05:35:38;;;;;;;0.00;0.00;;;-1.80;99.90;;;;;;5023116;28;20021;-67
2023/12/08 05:38:04;;;;;;;0.00;0.00;;;-1.80;99.90;;;;;;5025690;28;20056;-66
2023/12/08 05:40:31;;;;;;;0.00;0.00;;;-1.80;99.90;;;;;;5022778;28;20028;-66
2023/12/08 05:42:56;;;;;;;1.15;0.30;;;-1.60;99.90;;;;;;5022716;28;20092;-66
2023/12/08 05:45:22;;;;;;;0.00;0.00;;;-1.40;99.90;;;;;;5025499;28;20472;-65
2023/12/08 05:47:48;;;;;;;0.00;0.00;;;-1.50;99.90;;;;;;5024665;28;20253;-66
2023/12/08 05:50:13;;;;;;;0.00;0.00;;;-1.60;99.90;;;;;;5023030;28;20053;-66
2023/12/08 05:52:39;;;;;;;0.00;0.00;;;-1.60;99.90;;;;;;5019313;28;20017;-66
2023/12/08 05:55:05;;;;;;;0.00;0.00;;;-1.60;99.90;;;;;;5021390;28;20036;-66
2023/12/08 05:57:30;;;;;;;0.00;0.00;;;-1.60;99.90;;;;;;5026758;28;20053;-66
2023/12/08 05:59:56;;;;;;;0.00;0.00;;;-1.60;99.90;;;;;;5027107;28;20153;-66
2023/12/08 06:02:22;;;;;;;0.00;0.00;;;-1.50;99.90;;;;;;5024088;28;20043;-66
2023/12/08 06:04:48;;;;;;;0.00;0.00;;;-1.50;99.90;;;;;;5026827;28;20193;-66
2023/12/08 06:07:13;;;;;;;0.00;0.00;;;-1.50;99.90;;;;;;5027630;28;20036;-66
2023/12/08 06:09:39;;;;;;;0.00;0.00;;;-1.50;99.90;;;;;;5024663;28;20028;-66
2023/12/08 06:12:05;;;;;;;0.00;0.00;;;-1.50;99.90;;;;;;5021663;28;20158;-67
2023/12/08 06:14:31;;;;;;;0.00;0.00;;;-1.50;99.90;;;;;;5022993;28;20512;-66
2023/12/08 06:16:56;;;;;;;0.00;0.00;;;-1.40;99.90;;;;;;5025397;28;20025;-66
2023/12/08 06:19:23;;;;;;;0.00;0.00;;;-1.30;99.90;;;;;;5023269;28;20028;-66
2023/12/08 06:21:49;;;;;;;;;;;-1.30;99.90;;;;;;5020188;28;20033;-65
2023/12/08 06:24:16;;;;;;;0.00;0.00;;;-1.20;99.90;;;;;;5022262;28;19920;-65
2023/12/08 06:26:41;;;;;;;0.00;0.00;;;-1.20;99.90;;;;;;5017791;28;20021;-66
2023/12/08 06:29:08;;;;;;;0.00;0.00;;;-1.30;99.90;;;;;;5029594;28;20033;-66
2023/12/08 06:31:34;;;;;;;;;;;-1.20;99.90;;;;;;5020840;28;20076;-66
2023/12/08 06:33:59;;;;;;;0.00;0.00;;;-1.20;99.90;;;;;;5027988;28;20344;-66
2023/12/08 06:36:25;;;;;;;1.27;1.20;;;-1.10;99.90;;;;;;5023620;28;20040;-66
2023/12/08 06:38:51;;;;;;;0.00;0.00;;;-1.10;99.90;;;;;;5027063;28;20585;-66
2023/12/08 06:41:17;;;;;;;0.03;0.03;;;-1.10;99.90;;;;;;5022349;28;20033;-67
2023/12/08 06:43:42;;;;;;;0.20;0.20;;;-1.00;99.90;;;;;;5017656;28;20025;-66
2023/12/08 06:46:08;;;;;;;0.00;0.00;;;-0.90;99.90;;;;;;5021951;28;20021;-66
2023/12/08 06:48:34;;;;;;;1.23;1.17;;;-0.80;99.90;;;;;;5029104;28;20017;-66
2023/12/08 06:50:59;;;;;;;0.00;0.00;;;-0.70;99.90;;;;;;5019016;28;20112;-66
2023/12/08 06:53:25;;;;;;;2.13;1.03;;;-0.40;99.90;;;;;;5022160;28;20112;-66
2023/12/08 06:55:50;;;;;;;0.40;0.40;;;-0.10;99.90;;;;;;5019907;28;20021;-66
2023/12/08 06:58:17;;;;;;;0.00;0.00;;;0.40;99.90;;;;;;5026365;28;20054;-66
2023/12/08 07:00:42;;;;;;;0.00;0.00;;;0.80;99.90;;;;;;5016205;28;20075;-66
2023/12/08 07:03:08;;;;;;;0.00;0.00;;;1.30;99.90;;;;;;5031061;28;20017;-66
2023/12/08 07:05:34;;;;;;;1.40;1.13;;;1.80;99.90;;;;;;5022703;28;20029;-66
2023/12/08 07:08:00;;;;;;;0.00;0.00;;;2.10;99.90;;;;;;5020325;28;20013;-66
2023/12/08 07:10:26;;;;;;;0.83;0.83;;;2.20;99.90;;;;;;5022986;28;20041;-66
2023/12/08 07:12:51;;;;;;;0.00;0.00;;;2.40;99.90;;;;;;5020242;28;20101;-66
2023/12/08 07:15:17;;;;;;;0.00;0.00;;;3.00;99.90;;;;;;5023303;28;20910;-66
2023/12/08 07:17:42;;;;;;;0.00;0.00;;;3.60;99.90;;;;;;5017983;28;20021;-67
2023/12/08 07:20:09;;;;;;;0.00;0.00;;;4.00;99.90;;;;;;5025830;28;20079;-66
2023/12/08 07:22:35;;;;;;;0.10;0.10;;;4.40;99.90;;;;;;5015859;28;20076;-67
2023/12/08 07:25:07;;;;;;;0.00;0.00;;;3.70;99.90;;;;;;5018783;28;20022;-66
2023/12/08 07:27:33;;;;;;;0.00;0.00;;;3.20;99.90;;;;;;5024568;28;20306;-67
2023/12/08 07:29:58;;;;;;;0.00;0.00;;;2.90;99.90;;;;;;5026512;28;20063;-67
2023/12/08 07:32:24;;;;;;;0.20;0.20;;;2.80;99.90;;;;;;5022564;28;20132;-66
2023/12/08 07:34:50;;;;;;;0.00;0.00;;;2.60;99.90;;;;;;5022059;28;20079;-67
2023/12/08 07:37:16;;;;;;;0.00;0.00;;;2.40;99.90;;;;;;5024236;28;20021;-67
2023/12/08 07:39:42;;;;;;;0.00;0.00;;;2.10;99.90;;;;;;5024036;28;20352;-66
2023/12/08 07:42:07;;;;;;;2.47;1.33;;;1.90;99.90;;;;;;5015729;28;20488;-66
2023/12/08 07:44:34;;;;;;;0.00;0.00;;;1.90;99.90;;;;;;5022089;28;20034;-67
2023/12/08 07:47:01;;;;;;;0.00;0.00;;;1.80;99.90;;;;;;5017006;28;20059;-66
2023/12/08 07:49:26;;;;;;;0.60;0.60;;;1.80;99.90;;;;;;5023059;28;20080;-66
2023/12/08 07:51:52;;;;;;;0.00;0.00;;;1.80;99.90;;;;;;5021540;28;20029;-67
2023/12/08 07:54:18;;;;;;;0.10;0.10;;;1.70;99.90;;;;;;5017649;28;21430;-67
2023/12/08 07:56:43;;;;;;;0.00;0.00;;;1.80;99.90;;;;;;5024516;28;20111;-66
2023/12/08 07:59:09;;;;;;;0.00;0.00;;;2.00;99.90;;;;;;5025560;28;20521;-66
2023/12/08 08:01:36;;;;;;;0.00;0.00;;;2.00;99.90;;;;;;5027935;28;20055;-66
2023/12/08 08:04:01;;;;;;;0.55;0.55;;;2.00;99.90;;;;;;5031886;28;20772;-65
2023/12/08 08:06:27;;;;;;;0.00;0.00;;;2.10;99.90;;;;;;5024289;28;20116;-66
2023/12/08 08:08:53;;;;;;;0.00;0.00;;;2.10;99.90;;;;;;5026383;28;20381;-66
2023/12/08 08:11:19;;;;;;;0.00;0.00;;;2.70;99.90;;;;;;5024196;28;20036;-67
2023/12/08 08:13:44;;;;;;;0.40;0.40;;;3.60;99.90;;;;;;5019940;28;20033;-66
2023/12/08 08:16:10;;;;;;;0.00;0.00;;;4.50;99.90;;;;;;5027501;28;20033;-66
2023/12/08 08:18:36;;;;;;;0.00;0.00;;;4.40;99.90;;;;;;5019257;28;20049;-65
2023/12/08 08:21:01;;;;;;;0.00;0.00;;;4.00;99.90;;;;;;5025490;28;20060;-69
2023/12/08 08:23:27;;;;;;;0.00;0.00;;;3.70;99.90;;;;;;5020557;28;20064;-65
2023/12/08 08:25:53;;;;;;;0.00;0.00;;;3.80;99.90;;;;;;5026038;28;20057;-67
2023/12/08 08:28:19;;;;;;;0.43;0.43;;;3.80;99.90;;;;;;5028617;28;20460;-67
2023/12/08 08:30:44;;;;;;;0.53;0.53;;;3.80;99.90;;;;;;5028924;28;20029;-67
2023/12/08 08:33:11;;;;;;;0.00;0.00;;;4.10;99.90;;;;;;5032939;28;20044;-67
2023/12/08 08:35:37;;;;;;;0.00;0.00;;;4.90;99.90;;;;;;5022643;28;20030;-69
2023/12/08 08:38:03;;;;;;;;;;;5.30;99.90;;;;;;5026229;28;20031;-67
2023/12/08 08:40:31;;;;;;;3.00;0.52;;;5.10;99.90;;;;;;5032961;28;19909;-67
2023/12/08 08:42:56;;;;;;;0.15;0.15;;;4.70;99.90;;;;;;5027222;28;20021;-66
2023/12/08 08:45:22;;;;;;;0.00;0.00;;;4.70;99.90;;;;;;5022718;28;20013;-66
2023/12/08 08:47:48;;;;;;;0.00;0.00;;;5.70;99.90;;;;;;5026070;28;20017;-67
2023/12/08 08:50:14;;;;;;;0.00;0.00;;;6.50;99.90;;;;;;5029413;28;20096;-68
2023/12/08 08:52:39;;;;;;;0.83;0.83;;;7.40;99.90;;;;;;5019369;28;20018;-67
2023/12/08 08:55:06;;;;;;;0.00;0.00;;;7.10;99.90;;;;;;5023290;28;20565;-66
2023/12/08 08:57:32;;;;;;;0.17;0.17;;;7.10;99.90;;;;;;5027547;28;20029;-66
2023/12/08 08:59:57;;;;;;;0.85;0.55;;;6.80;99.90;;;;;;5029995;28;20041;-67
2023/12/08 09:02:23;;;;;;;0.00;0.00;;;6.10;99.90;;;;;;5025387;28;20029;-68
2023/12/08 09:04:49;;;;;;;0.00;0.00;;;5.30;99.90;;;;;;5021696;28;20037;-67
2023/12/08 09:07:14;;;;;;;0.10;0.10;;;6.50;99.90;;;;;;5029279;28;20051;-69
2023/12/08 09:09:40;;;;;;;0.00;0.00;;;7.70;99.90;;;;;;5020457;28;20024;-65
2023/12/08 09:12:07;;;;;;;0.00;0.00;;;8.50;99.90;;;;;;5024066;28;20025;-65
2023/12/08 09:14:33;;;;;;;;;;;7.30;99.90;;;;;;5025048;28;20128;-67
2023/12/08 09:17:04;;;;;;;0.60;0.50;;;6.80;99.90;;;;;;5020304;28;19960;-68
2023/12/08 09:19:31;;;;;;;0.00;0.00;;;6.20;99.90;;;;;;5028263;28;20469;-65
2023/12/08 09:21:56;;;;;;;0.00;0.00;;;5.60;99.90;;;;;;5023870;28;20036;-66
2023/12/08 09:24:22;;;;;;;0.00;0.00;;;6.40;99.90;;;;;;5020894;28;20037;-66
2023/12/08 09:26:48;;;;;;;0.15;0.15;;;7.80;99.90;;;;;;5025824;28;21061;-67
